aviador You're here:

KAHN Decoded Metar

ATHENS in GA, USA
Report Time2017-08-18 17:51:00
UTC Time2017-08-18 18:18:30
Flight Rules vfr VFR
Wind290° at 08 Gusting to 15 kt
W.Decomp.*RWY 27: 7.4 kt HW 3.1 kt RCW
RWY 02: 0.4 kt HW 8 kt LCW
W.Rank290° ranks 5
Current wind is above 290° avg. (6.5)
Visibility9999 m
Phenomena:N/A
Clouds:Few 037 Hf
Expected CloudBase > 3,600 ft AGL from Temp-Dew spread
CeilingNone
Temp32°C (ISA +19)
Dew Point23°C (59% RH)
Heat Index36.8°C
QNH1015 hPa
Density Alt3,225 ft
Elevation801 ft
Report Wrong Elevation
Raw Report
METAR KAHN 181751Z 29008G15KT 10SM FEW037 32/23 A2998 RMK AO2 SLP141
T03220228 10322 20239 58010=

Extra information for KAHN:More info

Metar Taf Metar & Taf Last 4 Metars F.Rules Stats Wind Profile Meteogram Temp Stats Airport Information Weather charts Add Link Nearby VenuesMetar ALERT Operation Metar Decoded Social comments

AIRNAV info for KAHN